createdAt,value
2019-04-28T00:01:38.579Z,23.20
2019-04-28T00:04:09.121Z,22.63
2019-04-28T00:06:39.448Z,23.90
2019-04-28T00:09:11.588Z,23.40
2019-04-28T00:11:41.872Z,22.60
2019-04-28T00:14:12.690Z,22.77
2019-04-28T00:16:43.364Z,23.27
2019-04-28T00:19:16.988Z,24.43
2019-04-28T00:21:57.234Z,22.60
2019-04-28T00:24:46.558Z,23.63
2019-04-28T00:27:18.346Z,22.73
2019-04-28T00:29:49.574Z,22.90
2019-04-28T00:32:22.177Z,21.70
2019-04-28T00:34:52.530Z,22.67
2019-04-28T00:37:32.002Z,23.27
2019-04-28T00:40:02.430Z,22.67
2019-04-28T00:42:32.746Z,23.93
2019-04-28T00:45:03.328Z,23.13
2019-04-28T00:47:35.263Z,23.57
2019-04-28T00:50:11.751Z,23.77
2019-04-28T00:52:42.539Z,23.47
2019-04-28T00:55:13.035Z,22.63
2019-04-28T00:57:43.424Z,23.00
2019-04-28T01:00:16.816Z,22.80
2019-04-28T01:02:47.458Z,23.67
2019-04-28T01:05:21.202Z,22.17
2019-04-28T01:07:54.384Z,24.10
2019-04-28T01:10:30.805Z,24.40
2019-04-28T01:13:02.314Z,23.87
2019-04-28T01:15:42.865Z,24.00
2019-04-28T01:18:32.920Z,22.73
2019-04-28T01:21:03.638Z,23.17
2019-04-28T01:23:33.963Z,22.57
2019-04-28T01:26:04.493Z,22.60
2019-04-28T01:28:34.809Z,22.77
2019-04-28T01:31:36.452Z,23.33
2019-04-28T01:34:15.837Z,22.37
2019-04-28T01:36:46.206Z,23.53
2019-04-28T01:39:16.519Z,23.77
2019-04-28T01:41:46.857Z,22.70
2019-04-28T01:44:19.831Z,23.20
2019-04-28T01:46:52.526Z,22.43
2019-04-28T01:49:22.872Z,23.37
2019-04-28T01:52:00.889Z,22.90
2019-04-28T01:54:32.536Z,22.67
2019-04-28T01:57:03.329Z,22.83
2019-04-28T01:59:35.460Z,23.67
2019-04-28T02:02:10.007Z,22.77
2019-04-28T02:04:40.451Z,22.50
2019-04-28T02:07:11.181Z,22.30
2019-04-28T02:09:41.968Z,22.37
2019-04-28T02:12:12.404Z,22.50
2019-04-28T02:14:42.714Z,22.57
2019-04-28T02:17:13.075Z,22.70
2019-04-28T02:19:43.385Z,21.37
2019-04-28T02:22:29.920Z,21.73
2019-04-28T02:25:02.221Z,22.30
2019-04-28T02:27:36.918Z,21.70
2019-04-28T02:30:11.386Z,22.37
2019-04-28T02:32:41.919Z,22.60
2019-04-28T02:35:12.327Z,21.93
2019-04-28T02:37:42.976Z,21.83
2019-04-28T02:40:13.274Z,22.43
2019-04-28T02:42:43.765Z,20.97
2019-04-28T02:45:21.833Z,21.27
2019-04-28T02:47:53.151Z,21.43
2019-04-28T02:50:35.419Z,21.30
2019-04-28T02:53:17.799Z,22.27
2019-04-28T02:55:48.209Z,21.47
2019-04-28T02:58:22.474Z,21.33
2019-04-28T03:01:02.822Z,21.43
2019-04-28T03:03:42.961Z,20.47
2019-04-28T03:06:14.231Z,21.50
2019-04-28T03:08:45.018Z,20.87
2019-04-28T03:11:15.337Z,21.73
2019-04-28T03:13:45.684Z,21.23
2019-04-28T03:16:16.239Z,20.90
2019-04-28T03:18:51.421Z,20.03
2019-04-28T03:21:22.001Z,20.77
2019-04-28T03:23:52.344Z,20.20
2019-04-28T03:26:33.218Z,21.20
2019-04-28T03:29:10.871Z,20.87
2019-04-28T03:32:22.048Z,20.90
2019-04-28T03:34:45.444Z,20.53
2019-04-28T03:37:25.141Z,20.83
2019-04-28T03:39:55.480Z,20.80
2019-04-28T03:42:25.809Z,20.07
2019-04-28T03:45:00.997Z,20.10
2019-04-28T03:47:32.273Z,21.23
2019-04-28T03:50:02.557Z,19.57
2019-04-28T03:52:32.874Z,19.43
2019-04-28T03:55:05.798Z,19.97
2019-04-28T03:57:36.261Z,21.30
2019-04-28T04:00:10.852Z,20.43
2019-04-28T04:02:41.231Z,20.63
2019-04-28T04:05:12.965Z,20.17
2019-04-28T04:07:44.116Z,19.80
2019-04-28T04:10:50.152Z,20.43
2019-04-28T04:13:33.067Z,19.90
2019-04-28T04:16:23.564Z,20.03
2019-04-28T04:18:55.384Z,19.83
2019-04-28T04:21:25.670Z,19.00
2019-04-28T04:23:56.343Z,20.63
2019-04-28T04:26:26.958Z,19.33
2019-04-28T04:29:00.709Z,20.10
2019-04-28T04:31:31.839Z,19.13
2019-04-28T04:34:03.265Z,20.30
2019-04-28T04:36:35.063Z,19.43
2019-04-28T04:39:10.808Z,18.93
2019-04-28T04:41:43.783Z,18.67
2019-04-28T04:44:15.424Z,17.57
2019-04-28T04:46:45.778Z,17.90
2019-04-28T04:49:16.106Z,18.00
2019-04-28T04:51:46.373Z,17.63
2019-04-28T04:54:20.441Z,17.53
2019-04-28T04:56:55.029Z,16.70
2019-04-28T04:59:30.055Z,17.20
2019-04-28T05:02:29.305Z,16.97
2019-04-28T05:05:11.802Z,17.48
2019-04-28T05:07:42.932Z,16.85
2019-04-28T05:10:13.716Z,16.90
2019-04-28T05:12:44.030Z,16.10
2019-04-28T05:15:14.637Z,15.95
2019-04-28T05:17:45.427Z,15.03
2019-04-28T05:20:15.780Z,15.00
2019-04-28T05:22:54.598Z,14.05
2019-04-28T05:25:32.589Z,13.68
2019-04-28T05:28:03.466Z,12.88
2019-04-28T05:30:34.942Z,12.03
2019-04-28T05:33:07.718Z,11.80
2019-04-28T05:35:40.193Z,12.03
2019-04-28T05:38:10.530Z,11.35
2019-04-28T05:40:42.075Z,9.78
2019-04-28T05:43:12.548Z,9.78
2019-04-28T05:45:45.106Z,8.88
2019-04-28T05:48:20.218Z,8.75
2019-04-28T05:50:59.939Z,8.20
2019-04-28T05:53:53.804Z,7.85
2019-04-28T05:56:36.038Z,8.50
2019-04-28T05:59:11.016Z,8.20
2019-04-28T06:02:00.732Z,7.12
2019-04-28T06:04:31.450Z,7.05
2019-04-28T06:07:09.974Z,7.28
2019-04-28T06:09:45.766Z,7.15
2019-04-28T06:12:16.959Z,6.20
2019-04-28T06:14:50.238Z,5.97
2019-04-28T06:17:20.826Z,6.50
2019-04-28T06:19:51.186Z,6.33
2019-04-28T06:22:23.843Z,5.75
2019-04-28T06:24:54.198Z,5.75
2019-04-28T06:27:24.598Z,5.62
2019-04-28T06:29:55.912Z,5.25
2019-04-28T06:32:27.043Z,4.92
2019-04-28T06:34:57.213Z,5.22
2019-04-28T06:37:27.709Z,5.17
2019-04-28T06:39:58.150Z,4.95
2019-04-28T06:42:28.486Z,5.55
2019-04-28T06:44:59.135Z,5.00
2019-04-28T06:47:30.379Z,4.85
2019-04-28T06:50:00.739Z,5.17
2019-04-28T06:52:33.309Z,4.33
2019-04-28T06:55:03.788Z,5.03
2019-04-28T06:57:34.180Z,4.85
2019-04-28T07:00:08.708Z,4.87
2019-04-28T07:02:39.054Z,4.60
2019-04-28T07:05:12.001Z,4.20
2019-04-28T07:07:44.940Z,4.72
2019-04-28T07:10:15.271Z,5.17
2019-04-28T07:12:45.680Z,4.47
2019-04-28T07:15:17.466Z,4.75
2019-04-28T07:17:47.877Z,4.12
2019-04-28T07:20:35.378Z,5.40
2019-04-28T07:23:05.759Z,4.08
2019-04-28T07:25:36.438Z,4.42
2019-04-28T07:28:07.251Z,4.45
2019-04-28T07:30:39.725Z,4.20
2019-04-28T07:33:10.750Z,4.55
2019-04-28T07:35:41.217Z,4.03
2019-04-28T07:38:11.544Z,4.30
2019-04-28T07:40:44.292Z,4.50
2019-04-28T07:43:14.703Z,4.50
2019-04-28T07:45:46.811Z,4.72
2019-04-28T07:48:18.332Z,4.45
2019-04-28T07:50:50.300Z,4.67
2019-04-28T07:53:39.706Z,4.25
2019-04-28T07:56:10.256Z,5.30
2019-04-28T07:58:42.776Z,5.10
2019-04-28T08:01:13.557Z,4.75
2019-04-28T08:03:49.550Z,4.62
2019-04-28T08:06:16.316Z,4.70
2019-04-28T08:08:46.732Z,5.05
2019-04-28T08:11:17.531Z,4.22
2019-04-28T08:13:48.050Z,4.58
2019-04-28T08:16:18.402Z,4.78
2019-04-28T08:18:48.860Z,3.80
2019-04-28T08:21:19.315Z,4.92
2019-04-28T08:23:49.730Z,4.53
2019-04-28T08:26:20.186Z,4.25
2019-04-28T08:28:50.512Z,4.47
2019-04-28T08:31:24.180Z,4.20
2019-04-28T08:34:08.084Z,4.45
2019-04-28T08:36:40.822Z,4.00
2019-04-28T08:39:11.763Z,4.22
2019-04-28T08:41:45.257Z,4.35
2019-04-28T08:44:18.692Z,4.67
2019-04-28T08:46:49.402Z,4.08
2019-04-28T08:49:21.928Z,4.10
2019-04-28T08:51:52.258Z,4.65
2019-04-28T08:54:22.667Z,3.87
2019-04-28T08:56:53.184Z,4.20
2019-04-28T08:59:23.599Z,4.12
2019-04-28T09:01:55.524Z,3.83
2019-04-28T09:04:27.853Z,4.30
2019-04-28T09:07:02.314Z,3.85
2019-04-28T09:09:32.650Z,3.80
2019-04-28T09:12:04.216Z,3.77
2019-04-28T09:14:34.656Z,4.25
2019-04-28T09:17:08.671Z,4.12
2019-04-28T09:19:42.524Z,4.22
2019-04-28T09:22:13.150Z,4.10
2019-04-28T09:24:43.505Z,4.03
2019-04-28T09:27:15.559Z,4.45
2019-04-28T09:29:46.097Z,3.70
2019-04-28T09:32:16.469Z,3.85
2019-04-28T09:34:48.847Z,4.20
2019-04-28T09:37:20.274Z,3.65
2019-04-28T09:39:57.914Z,3.65
2019-04-28T09:42:48.155Z,4.20
2019-04-28T09:45:29.739Z,4.33
2019-04-28T09:48:05.848Z,4.17
2019-04-28T09:50:36.285Z,4.00
2019-04-28T09:53:09.061Z,3.83
2019-04-28T09:55:43.116Z,3.55
2019-04-28T09:58:13.915Z,4.00
2019-04-28T10:00:44.301Z,3.72
2019-04-28T10:03:14.661Z,3.70
2019-04-28T10:05:45.378Z,3.47
2019-04-28T10:08:17.630Z,3.27
2019-04-28T10:10:49.621Z,3.47
2019-04-28T10:13:19.970Z,3.85
2019-04-28T10:15:52.063Z,3.77
2019-04-28T10:18:23.833Z,3.33
2019-04-28T10:21:04.600Z,3.62
2019-04-28T10:23:36.547Z,3.35
2019-04-28T10:26:09.719Z,3.80
2019-04-28T10:28:40.225Z,3.35
2019-04-28T10:31:13.330Z,3.47
2019-04-28T10:33:45.632Z,3.20
2019-04-28T10:36:19.222Z,3.40
2019-04-28T10:38:51.181Z,3.00
2019-04-28T10:41:33.244Z,3.50
2019-04-28T10:44:03.785Z,3.20
2019-04-28T10:46:36.657Z,3.80
2019-04-28T10:49:08.628Z,3.05
2019-04-28T10:51:38.958Z,3.40
2019-04-28T10:54:10.392Z,3.22
2019-04-28T10:56:40.769Z,3.75
2019-04-28T10:59:12.354Z,3.95
2019-04-28T11:01:42.681Z,3.60
2019-04-28T11:04:34.021Z,3.25
2019-04-28T11:07:05.092Z,3.17
2019-04-28T11:09:43.098Z,2.98
2019-04-28T11:12:22.696Z,2.95
2019-04-28T11:14:53.788Z,3.47
2019-04-28T11:17:25.772Z,3.37
2019-04-28T11:19:56.100Z,3.20
2019-04-28T11:22:29.182Z,3.40
2019-04-28T11:24:59.538Z,3.47
2019-04-28T11:27:30.114Z,3.83
2019-04-28T11:30:00.502Z,3.90
2019-04-28T11:32:34.286Z,3.35
2019-04-28T11:35:21.983Z,3.50
2019-04-28T11:37:52.906Z,3.70
2019-04-28T11:40:23.973Z,3.50
2019-04-28T11:42:54.378Z,3.47
2019-04-28T11:45:25.822Z,3.55
2019-04-28T11:47:56.240Z,2.98
2019-04-28T11:50:26.991Z,3.00
2019-04-28T11:53:04.434Z,3.40
2019-04-28T11:55:36.823Z,4.40
2019-04-28T11:58:11.448Z,3.70
2019-04-28T12:00:41.899Z,3.80
2019-04-28T12:03:14.606Z,3.45
2019-04-28T12:05:47.076Z,3.15
2019-04-28T12:08:17.779Z,2.77
2019-04-28T12:10:54.318Z,3.10
2019-04-28T12:13:38.959Z,3.45
2019-04-28T12:16:29.848Z,3.45
2019-04-28T12:19:27.059Z,3.40
2019-04-28T12:21:57.423Z,3.10
2019-04-28T12:24:28.390Z,3.12
2019-04-28T12:27:00.881Z,3.55
2019-04-28T12:29:31.234Z,2.90
2019-04-28T12:32:02.653Z,2.77
2019-04-28T12:34:34.097Z,3.33
2019-04-28T12:37:05.000Z,3.65
2019-04-28T12:39:36.231Z,3.35
2019-04-28T12:42:06.653Z,2.70
2019-04-28T12:44:36.977Z,3.37
2019-04-28T12:47:17.212Z,3.20
2019-04-28T12:49:55.317Z,3.25
2019-04-28T12:52:25.940Z,3.65
2019-04-28T12:54:56.358Z,3.37
2019-04-28T12:57:28.010Z,3.35
2019-04-28T13:00:07.897Z,2.80
2019-04-28T13:02:56.288Z,3.15
2019-04-28T13:05:26.651Z,3.58
2019-04-28T13:08:00.204Z,3.30
2019-04-28T13:10:30.609Z,3.87
2019-04-28T13:13:04.023Z,3.35
2019-04-28T13:15:36.112Z,3.35
2019-04-28T13:18:07.309Z,3.20
2019-04-28T13:20:37.891Z,3.17
2019-04-28T13:23:08.244Z,3.30
2019-04-28T13:25:39.394Z,3.62
2019-04-28T13:28:09.977Z,3.40
2019-04-28T13:30:42.301Z,3.83
2019-04-28T13:33:13.016Z,5.37
2019-04-28T13:35:43.662Z,3.77
2019-04-28T13:38:14.011Z,3.12
2019-04-28T13:40:44.316Z,3.67
2019-04-28T13:43:15.415Z,3.35
2019-04-28T13:45:45.757Z,2.95
2019-04-28T13:48:16.508Z,3.40
2019-04-28T13:50:49.641Z,3.27
2019-04-28T13:53:20.861Z,3.98
2019-04-28T13:56:10.063Z,3.47
2019-04-28T13:58:44.881Z,3.12
2019-04-28T14:01:36.317Z,3.50
2019-04-28T14:04:25.776Z,3.00
2019-04-28T14:07:02.891Z,3.15
2019-04-28T14:09:33.237Z,2.83
2019-04-28T14:12:04.800Z,2.80
2019-04-28T14:14:35.111Z,2.50
2019-04-28T14:17:05.424Z,2.67
2019-04-28T14:19:35.692Z,2.42
2019-04-28T14:22:08.391Z,2.15
2019-04-28T14:24:40.112Z,2.42
2019-04-28T14:27:12.832Z,2.77
2019-04-28T14:29:43.385Z,2.37
2019-04-28T14:32:14.681Z,1.87
2019-04-28T14:34:46.501Z,2.08
2019-04-28T14:37:16.849Z,1.60
2019-04-28T14:39:49.629Z,1.52
2019-04-28T14:42:22.737Z,6.05
2019-04-28T14:44:56.445Z,4.03
2019-04-28T14:47:26.805Z,1.67
2019-04-28T14:49:57.119Z,2.08
2019-04-28T14:52:27.453Z,3.08
2019-04-28T14:54:58.228Z,2.15
2019-04-28T14:57:28.851Z,1.70
2019-04-28T14:59:59.193Z,1.62
2019-04-28T15:02:53.679Z,1.60
2019-04-28T15:05:33.193Z,1.70
2019-04-28T15:08:22.802Z,1.82
2019-04-28T15:10:59.301Z,1.57
2019-04-28T15:13:31.616Z,1.90
2019-04-28T15:16:02.447Z,2.08
2019-04-28T15:18:33.211Z,1.70
2019-04-28T15:21:04.575Z,1.98
2019-04-28T15:23:36.258Z,1.50
2019-04-28T15:26:06.582Z,1.50
2019-04-28T15:28:37.363Z,1.20
2019-04-28T15:31:08.102Z,1.30
2019-04-28T15:33:38.440Z,1.40
2019-04-28T15:36:08.864Z,1.27
2019-04-28T15:38:39.277Z,2.00
2019-04-28T15:41:20.852Z,1.20
2019-04-28T15:43:42.194Z,1.50
2019-04-28T15:46:12.534Z,1.42
2019-04-28T15:48:42.875Z,1.32
2019-04-28T15:51:13.440Z,1.45
2019-04-28T15:53:52.118Z,1.40
2019-04-28T15:56:46.601Z,1.40
2019-04-28T15:59:17.894Z,1.40
2019-04-28T16:01:48.619Z,1.67
2019-04-28T16:04:19.250Z,1.70
2019-04-28T16:06:49.622Z,1.95
2019-04-28T16:09:23.068Z,1.70
2019-04-28T16:11:54.531Z,1.62
2019-04-28T16:14:25.089Z,1.75
2019-04-28T16:16:55.515Z,1.85
2019-04-28T16:19:26.232Z,1.87
2019-04-28T16:22:11.843Z,1.70
2019-04-28T16:24:44.981Z,2.10
2019-04-28T16:27:15.612Z,2.00
2019-04-28T16:29:45.776Z,1.98
2019-04-28T16:32:17.636Z,2.20
2019-04-28T16:34:47.959Z,2.15
2019-04-28T16:37:18.576Z,2.00
2019-04-28T16:39:50.524Z,2.10
2019-04-28T16:42:22.923Z,2.17
2019-04-28T16:44:54.245Z,2.05
2019-04-28T16:47:24.516Z,1.82
2019-04-28T16:49:57.642Z,2.22
2019-04-28T16:52:27.965Z,2.15
2019-04-28T16:55:15.097Z,1.70
2019-04-28T16:58:12.043Z,2.30
2019-04-28T17:01:07.114Z,2.08
2019-04-28T17:03:38.185Z,2.00
2019-04-28T17:06:08.461Z,1.90
2019-04-28T17:08:39.139Z,2.20
2019-04-28T17:11:10.889Z,1.87
2019-04-28T17:13:41.947Z,1.98
2019-04-28T17:16:12.273Z,2.25
2019-04-28T17:18:42.626Z,1.90
2019-04-28T17:21:12.939Z,1.60
2019-04-28T17:23:44.298Z,2.37
2019-04-28T17:26:14.679Z,2.30
2019-04-28T17:28:46.188Z,1.95
2019-04-28T17:31:17.268Z,2.10
2019-04-28T17:33:47.892Z,1.75
2019-04-28T17:36:18.257Z,2.10
2019-04-28T17:38:48.594Z,2.22
2019-04-28T17:41:19.259Z,2.50
2019-04-28T17:43:49.535Z,1.95
2019-04-28T17:46:20.793Z,2.23
2019-04-28T17:48:55.638Z,2.12
2019-04-28T17:51:28.511Z,1.97
2019-04-28T17:53:59.833Z,1.97
2019-04-28T17:56:30.626Z,2.02
2019-04-28T17:59:00.963Z,2.27
2019-04-28T18:01:59.091Z,2.30
2019-04-28T18:04:43.838Z,2.05
2019-04-28T18:07:19.350Z,2.25
2019-04-28T18:09:52.477Z,2.00
2019-04-28T18:12:26.887Z,2.27
2019-04-28T18:15:03.072Z,2.50
2019-04-28T18:17:57.261Z,2.10
2019-04-28T18:20:27.953Z,2.33
2019-04-28T18:22:59.814Z,2.10
2019-04-28T18:25:30.467Z,2.40
2019-04-28T18:28:01.108Z,2.23
2019-04-28T18:30:35.687Z,2.63
2019-04-28T18:33:43.110Z,2.40
2019-04-28T18:36:22.521Z,2.17
2019-04-28T18:39:06.958Z,2.30
2019-04-28T18:41:46.711Z,2.47
2019-04-28T18:44:19.658Z,2.83
2019-04-28T18:46:50.124Z,2.47
2019-04-28T18:49:20.408Z,2.50
2019-04-28T18:51:52.253Z,2.63
2019-04-28T18:54:22.592Z,2.60
2019-04-28T18:56:57.654Z,2.43
2019-04-28T18:59:28.059Z,2.53
2019-04-28T19:02:13.144Z,2.50
2019-04-28T19:04:43.446Z,2.60
2019-04-28T19:07:21.676Z,2.43
2019-04-28T19:10:16.966Z,2.60
2019-04-28T19:13:11.468Z,2.80
2019-04-28T19:15:59.988Z,2.63
2019-04-28T19:18:36.258Z,2.63
2019-04-28T19:21:08.497Z,2.80
2019-04-28T19:23:39.585Z,3.60
2019-04-28T19:26:09.872Z,3.23
2019-04-28T19:28:40.507Z,2.70
2019-04-28T19:31:13.046Z,3.00
2019-04-28T19:33:43.724Z,2.73
2019-04-28T19:36:16.118Z,2.67
2019-04-28T19:38:46.679Z,2.57
2019-04-28T19:41:17.366Z,2.97
2019-04-28T19:43:47.684Z,3.00
2019-04-28T19:46:19.529Z,3.00
2019-04-28T19:48:52.189Z,2.73
2019-04-28T19:51:31.751Z,2.70
2019-04-28T19:53:54.458Z,3.13
2019-04-28T19:56:39.625Z,2.60
2019-04-28T19:59:17.320Z,3.00
2019-04-28T20:01:47.871Z,3.57
2019-04-28T20:04:21.916Z,2.67
2019-04-28T20:06:53.302Z,3.20
2019-04-28T20:09:23.595Z,2.93
2019-04-28T20:11:53.893Z,3.10
2019-04-28T20:14:25.934Z,3.00
2019-04-28T20:16:56.603Z,3.37
2019-04-28T20:19:27.134Z,3.20
2019-04-28T20:22:00.202Z,3.00
2019-04-28T20:24:30.536Z,2.83
2019-04-28T20:27:00.831Z,3.00
2019-04-28T20:29:31.101Z,3.00
2019-04-28T20:32:01.658Z,3.20
2019-04-28T20:34:33.097Z,3.13
2019-04-28T20:37:12.956Z,3.37
2019-04-28T20:39:45.115Z,3.00
2019-04-28T20:42:33.220Z,3.27
2019-04-28T20:45:03.737Z,3.13
2019-04-28T20:47:37.138Z,3.33
2019-04-28T20:50:09.120Z,3.43
2019-04-28T20:52:39.411Z,3.20
2019-04-28T20:55:11.012Z,3.10
2019-04-28T20:57:41.677Z,2.90
2019-04-28T21:00:12.002Z,3.13
2019-04-28T21:02:42.533Z,3.00
2019-04-28T21:05:14.047Z,3.23
2019-04-28T21:07:45.172Z,3.30
2019-04-28T21:10:16.724Z,3.63
2019-04-28T21:12:47.099Z,3.80
2019-04-28T21:15:18.289Z,3.57
2019-04-28T21:17:48.716Z,3.30
2019-04-28T21:20:19.070Z,2.87
2019-04-28T21:22:49.386Z,3.50
2019-04-28T21:25:21.107Z,3.50
2019-04-28T21:27:54.628Z,3.50
2019-04-28T21:30:26.386Z,3.40
2019-04-28T21:32:56.847Z,3.67
2019-04-28T21:35:34.386Z,3.47
2019-04-28T21:38:04.686Z,3.30
2019-04-28T21:40:38.397Z,3.30
2019-04-28T21:43:18.163Z,3.00
2019-04-28T21:45:58.619Z,3.50
2019-04-28T21:48:36.458Z,3.13
2019-04-28T21:51:07.074Z,3.40
2019-04-28T21:53:37.407Z,3.37
2019-04-28T21:56:07.661Z,3.33
2019-04-28T21:58:38.033Z,3.40
2019-04-28T22:01:09.841Z,3.40
2019-04-28T22:03:40.131Z,3.30
2019-04-28T22:06:13.131Z,3.67
2019-04-28T22:08:44.023Z,3.50
2019-04-28T22:11:14.437Z,3.50
2019-04-28T22:13:46.140Z,3.23
2019-04-28T22:16:16.603Z,3.67
2019-04-28T22:18:46.945Z,3.53
2019-04-28T22:21:18.200Z,3.40
2019-04-28T22:24:07.116Z,3.40
2019-04-28T22:26:49.560Z,3.33
2019-04-28T22:29:19.892Z,3.70
2019-04-28T22:31:50.262Z,4.13
2019-04-28T22:34:20.598Z,3.60
2019-04-28T22:36:52.074Z,3.30
2019-04-28T22:39:22.417Z,3.73
2019-04-28T22:41:52.779Z,3.60
2019-04-28T22:44:25.923Z,3.43
2019-04-28T22:46:56.231Z,3.97
2019-04-28T22:49:28.493Z,3.40
2019-04-28T22:52:01.074Z,3.77
2019-04-28T22:54:53.698Z,3.70
2019-04-28T22:57:32.500Z,4.00
2019-04-28T23:00:03.590Z,3.40
2019-04-28T23:02:34.270Z,3.87
2019-04-28T23:05:07.460Z,3.70
2019-04-28T23:07:37.745Z,3.57
2019-04-28T23:10:09.747Z,3.77
2019-04-28T23:12:44.233Z,3.83
2019-04-28T23:15:14.718Z,3.53
2019-04-28T23:17:45.626Z,3.80
2019-04-28T23:20:16.572Z,3.93
2019-04-28T23:22:49.879Z,3.87
2019-04-28T23:25:20.167Z,3.83
2019-04-28T23:27:50.482Z,3.60
2019-04-28T23:30:45.163Z,4.07
2019-04-28T23:33:15.585Z,3.57
2019-04-28T23:35:45.919Z,3.60
2019-04-28T23:38:19.289Z,4.37
2019-04-28T23:41:08.127Z,4.00
2019-04-28T23:43:38.486Z,4.07
2019-04-28T23:46:08.785Z,3.80
2019-04-28T23:48:39.105Z,3.60
2019-04-28T23:51:17.384Z,4.00
2019-04-28T23:53:58.769Z,4.00
2019-04-28T23:56:29.109Z,3.80
2019-04-28T23:58:59.742Z,4.00
